Time;durP1;ratioP1;P1;durP2;ratioP2;P2;SDS_P1;SDS_P2;PMS_P1;PMS_P2;Temp;Humidity;BMP_temperature;BMP_pressure;BME280_temperature;BME280_humidity;BME280_pressure;Samples;Min_cycle;Max_cycle;Signal;HPM_P1;HPM_P2
2022/03/28 00:00:09;;;;;;;16.20;3.20;;;7.40;99.90;;;;;;4897683;29;20048;-84
2022/03/28 00:02:40;;;;;;;36.85;3.35;;;7.00;99.90;;;;;;4897580;29;20051;-84
2022/03/28 00:05:07;;;;;;;34.70;3.05;;;6.80;99.90;;;;;;4912702;29;20530;-84
2022/03/28 00:07:32;;;;;;;37.67;3.50;;;6.80;99.90;;;;;;4913440;29;20049;-83
2022/03/28 00:09:58;;;;;;;22.38;3.53;;;6.80;99.90;;;;;;4897265;29;20041;-83
2022/03/28 00:12:24;;;;;;;30.45;3.17;;;6.80;99.90;;;;;;4896447;29;20401;-83
2022/03/28 00:14:51;;;;;;;56.55;4.10;;;6.70;99.90;;;;;;4896524;29;20096;-84
2022/03/28 00:17:16;;;;;;;57.60;6.60;;;6.70;99.90;;;;;;4878484;29;20075;-84
2022/03/28 00:19:42;;;;;;;54.25;3.90;;;6.80;99.90;;;;;;4878653;29;20052;-83
2022/03/28 00:22:08;;;;;;;29.13;3.25;;;6.80;99.90;;;;;;4911721;29;20131;-83
2022/03/28 00:24:34;;;;;;;57.55;4.32;;;6.80;99.90;;;;;;4878966;29;20124;-83
2022/03/28 00:27:00;;;;;;;24.52;3.00;;;6.80;99.90;;;;;;4892450;29;20048;-84
2022/03/28 00:29:25;;;;;;;26.88;3.20;;;6.80;99.90;;;;;;4878820;29;20095;-84
2022/03/28 00:31:51;;;;;;;38.97;4.03;;;6.90;99.90;;;;;;4863620;29;20052;-83
2022/03/28 00:34:21;;;;;;;21.42;3.20;;;6.80;99.90;;;;;;4878152;29;20115;-84
2022/03/28 00:36:49;;;;;;;36.90;4.22;;;6.70;99.90;;;;;;4894341;29;20049;-84
2022/03/28 00:39:16;;;;;;;37.63;3.22;;;6.80;99.90;;;;;;4910477;29;20056;-83
2022/03/28 00:41:43;;;;;;;41.92;3.92;;;6.90;99.90;;;;;;4893556;29;20063;-83
2022/03/28 00:44:08;;;;;;;29.27;3.40;;;6.90;99.90;;;;;;4862552;29;20173;-84
2022/03/28 00:46:35;;;;;;;33.38;3.40;;;7.10;99.90;;;;;;4878798;29;20131;-83
2022/03/28 00:49:01;;;;;;;17.40;2.80;;;6.80;99.90;;;;;;4878094;29;20063;-83
2022/03/28 00:51:27;;;;;;;14.48;3.25;;;6.70;99.90;;;;;;4894002;29;20041;-83
2022/03/28 00:53:53;;;;;;;9.02;3.08;;;6.70;99.90;;;;;;4893798;29;20052;-83
2022/03/28 00:56:20;;;;;;;15.38;3.22;;;6.60;99.90;;;;;;4877519;29;20108;-83
2022/03/28 00:58:46;;;;;;;10.93;3.13;;;6.60;99.90;;;;;;4878041;29;20064;-84
2022/03/28 01:01:12;;;;;;;;;;;6.70;99.90;;;;;;4894416;29;20147;-83
2022/03/28 01:03:38;;;;;;;26.70;3.45;;;6.60;99.90;;;;;;4892248;29;19984;-84
2022/03/28 01:06:05;;;;;;;44.58;5.35;;;6.90;99.90;;;;;;4895664;29;20055;-84
2022/03/28 01:08:33;;;;;;;52.15;4.43;;;6.50;99.90;;;;;;4916036;29;20165;-84
2022/03/28 01:11:05;;;;;;;37.45;3.92;;;6.60;99.90;;;;;;4900704;29;20125;-83
2022/03/28 01:13:33;;;;;;;50.80;4.82;;;6.80;99.90;;;;;;4915519;29;20425;-84
2022/03/28 01:15:59;;;;;;;59.92;5.13;;;6.60;99.90;;;;;;4885154;29;20102;-84
2022/03/28 01:18:26;;;;;;;39.65;5.65;;;6.70;99.90;;;;;;4915305;29;20803;-84
2022/03/28 01:20:58;;;;;;;54.15;5.63;;;6.80;99.90;;;;;;4885114;29;20116;-83
2022/03/28 01:23:25;;;;;;;38.78;4.93;;;6.60;99.90;;;;;;4899795;29;20040;-84
2022/03/28 01:25:51;;;;;;;24.60;4.72;;;6.90;99.90;;;;;;4915852;29;20059;-83
2022/03/28 01:28:22;;;;;;;28.15;5.00;;;6.70;99.90;;;;;;4895766;29;20055;-84
2022/03/28 01:30:48;;;;;;;28.17;5.60;;;6.70;99.90;;;;;;4908986;29;20082;-83
2022/03/28 01:33:14;;;;;;;32.33;4.80;;;6.90;99.90;;;;;;4882883;29;20059;-83
2022/03/28 01:35:42;;;;;;;48.15;6.03;;;6.70;99.90;;;;;;4884890;29;20047;-84
2022/03/28 01:38:09;;;;;;;33.25;5.70;;;6.70;99.90;;;;;;4915413;29;20139;-84
2022/03/28 01:41:03;;;;;;;23.08;4.88;;;6.70;99.90;;;;;;4915107;29;20060;-84
2022/03/28 01:43:28;;;;;;;18.75;5.40;;;6.70;99.90;;;;;;4911883;29;20052;-84
2022/03/28 01:45:54;;;;;;;25.02;5.32;;;7.10;99.90;;;;;;4884706;29;20087;-84
2022/03/28 01:48:20;;;;;;;44.17;5.85;;;6.80;99.90;;;;;;4915009;29;20056;-84
2022/03/28 01:50:45;;;;;;;61.47;7.50;;;6.80;99.90;;;;;;4896345;29;20430;-83
2022/03/28 01:53:11;;;;;;;68.90;7.22;;;6.90;99.90;;;;;;4880399;29;20044;-84
2022/03/28 01:55:38;;;;;;;32.97;6.70;;;6.90;99.90;;;;;;4881083;29;20056;-84
2022/03/28 01:58:04;;;;;;;47.72;6.85;;;6.90;99.90;;;;;;4865198;29;20058;-83
2022/03/28 02:00:32;;;;;;;31.38;6.95;;;6.90;99.90;;;;;;4880516;29;20699;-83
2022/03/28 02:02:58;;;;;;;80.43;7.35;;;7.30;99.90;;;;;;4914812;29;20100;-84
2022/03/28 02:05:24;;;;;;;46.60;7.53;;;6.90;99.90;;;;;;4883169;29;20047;-83
2022/03/28 02:07:49;;;;;;;78.05;9.23;;;6.80;99.90;;;;;;4897628;29;20040;-83
2022/03/28 02:10:19;;;;;;;43.30;8.93;;;6.80;99.90;;;;;;4899184;29;20558;-84
2022/03/28 02:12:45;;;;;;;42.53;8.45;;;6.70;99.90;;;;;;4913771;29;20486;-84
2022/03/28 02:15:11;;;;;;;71.03;9.18;;;6.70;99.90;;;;;;4896422;29;20455;-83
2022/03/28 02:17:38;;;;;;;35.97;9.27;;;7.10;99.90;;;;;;4879861;29;20048;-83
2022/03/28 02:20:06;;;;;;;39.83;9.40;;;6.80;99.90;;;;;;4896008;29;20139;-83
2022/03/28 02:22:35;;;;;;;38.33;9.45;;;6.70;99.90;;;;;;4895042;29;20084;-83
2022/03/28 02:25:04;;;;;;;33.97;9.45;;;6.60;99.90;;;;;;4880664;29;20060;-83
2022/03/28 02:27:29;;;;;;;22.63;9.07;;;6.70;99.90;;;;;;4894427;29;20100;-83
2022/03/28 02:29:55;;;;;;;50.13;9.02;;;7.30;99.90;;;;;;4894570;29;20053;-83
2022/03/28 02:32:20;;;;;;;75.72;9.20;;;7.00;99.90;;;;;;4895522;29;20053;-83
2022/03/28 02:34:46;;;;;;;75.20;10.40;;;7.20;99.90;;;;;;4906909;29;20113;-84
2022/03/28 02:37:12;;;;;;;73.35;11.18;;;6.70;99.90;;;;;;4914892;29;20458;-83
2022/03/28 02:39:38;;;;;;;38.03;9.95;;;6.60;99.90;;;;;;4914284;29;20171;-83
2022/03/28 02:42:04;;;;;;;38.10;10.13;;;6.50;99.90;;;;;;4897141;29;20091;-83
2022/03/28 02:44:30;;;;;;;;;;;6.50;99.90;;;;;;4911224;29;20044;-83
2022/03/28 02:46:56;;;;;;;42.15;10.38;;;6.50;99.90;;;;;;4895764;29;19930;-83
2022/03/28 02:49:22;;;;;;;;;;;7.40;99.90;;;;;;4879905;29;20067;-84
2022/03/28 02:51:48;;;;;;;77.40;10.60;;;6.60;99.90;;;;;;4895702;29;19927;-84
2022/03/28 02:54:14;;;;;;;109.70;11.65;;;6.50;99.90;;;;;;4912436;29;20048;-84
2022/03/28 02:56:39;;;;;;;77.97;11.48;;;6.50;99.90;;;;;;4878735;29;20060;-83
2022/03/28 02:59:06;;;;;;;79.75;10.98;;;6.50;99.90;;;;;;4895283;29;20495;-83
2022/03/28 03:01:32;;;;;;;73.95;10.45;;;6.50;99.90;;;;;;4899792;29;20517;-83
2022/03/28 03:03:58;;;;;;;72.32;10.43;;;6.50;99.90;;;;;;4895013;29;20048;-84
2022/03/28 03:06:24;;;;;;;45.80;9.15;;;6.50;99.90;;;;;;4894829;29;20475;-84
2022/03/28 03:08:50;;;;;;;44.78;9.68;;;6.50;99.90;;;;;;4864257;29;20065;-84
2022/03/28 03:11:16;;;;;;;;;;;6.50;99.90;;;;;;4895684;29;20067;-84
2022/03/28 03:13:42;;;;;;;47.20;10.10;;;6.60;99.90;;;;;;4894275;29;19923;-84
2022/03/28 03:16:08;;;;;;;53.95;10.52;;;6.40;99.90;;;;;;4880022;29;20406;-84
2022/03/28 03:18:33;;;;;;;121.97;12.77;;;6.40;99.90;;;;;;4896878;29;20048;-83
2022/03/28 03:20:59;;;;;;;98.18;12.93;;;6.40;99.90;;;;;;4914084;29;20486;-84
2022/03/28 03:23:27;;;;;;;70.75;10.85;;;6.50;99.90;;;;;;4894553;29;20083;-84
2022/03/28 03:25:53;;;;;;;79.40;11.98;;;6.40;99.90;;;;;;4895288;29;20152;-83
2022/03/28 03:28:20;;;;;;;92.78;12.43;;;6.40;99.90;;;;;;4880623;29;20498;-84
2022/03/28 03:30:46;;;;;;;99.63;12.85;;;6.60;99.90;;;;;;4879537;29;20071;-84
2022/03/28 03:33:12;;;;;;;56.85;11.00;;;6.50;99.90;;;;;;4894783;29;20067;-84
2022/03/28 03:35:38;;;;;;;45.45;9.38;;;6.60;99.90;;;;;;4863694;29;20052;-84
2022/03/28 03:38:04;;;;;;;34.25;9.10;;;6.50;99.90;;;;;;4879409;29;20049;-84
2022/03/28 03:40:30;;;;;;;27.33;9.43;;;6.40;99.90;;;;;;4893557;29;20064;-83
2022/03/28 03:42:56;;;;;;;64.78;10.15;;;6.40;99.90;;;;;;4894260;29;20059;-83
2022/03/28 03:45:21;;;;;;;37.03;8.02;;;6.40;99.90;;;;;;4912175;29;20553;-84
2022/03/28 03:47:47;;;;;;;36.85;8.70;;;6.50;99.90;;;;;;4906223;29;20052;-84
2022/03/28 03:50:13;;;;;;;49.35;8.75;;;6.40;99.90;;;;;;4864039;29;20052;-84
2022/03/28 03:52:38;;;;;;;33.35;8.52;;;6.20;99.90;;;;;;4894062;29;20532;-84
2022/03/28 03:55:06;;;;;;;39.03;9.15;;;6.10;99.90;;;;;;4880586;29;20048;-84
2022/03/28 03:57:32;;;;;;;34.85;8.18;;;6.00;99.90;;;;;;4881313;29;20403;-84
2022/03/28 03:59:58;;;;;;;61.40;11.70;;;6.00;99.90;;;;;;4882730;29;20570;-84
2022/03/28 04:02:24;;;;;;;40.38;8.98;;;6.30;99.90;;;;;;4898000;29;20094;-83
2022/03/28 04:04:49;;;;;;;45.83;9.18;;;6.00;99.90;;;;;;4913245;29;20056;-84
2022/03/28 04:07:15;;;;;;;60.42;10.15;;;6.30;99.90;;;;;;4894833;29;20040;-84
2022/03/28 04:09:41;;;;;;;26.35;9.15;;;6.00;99.90;;;;;;4878727;29;20056;-84
2022/03/28 04:12:07;;;;;;;;;;;6.00;99.90;;;;;;4902205;29;20608;-84
2022/03/28 04:14:33;;;;;;;20.70;8.05;;;6.00;99.90;;;;;;4912783;29;19967;-84
2022/03/28 04:16:59;;;;;;;23.52;8.57;;;6.10;99.90;;;;;;4882401;29;20131;-83
2022/03/28 04:19:25;;;;;;;32.33;9.50;;;6.20;99.90;;;;;;4912924;29;20044;-83
2022/03/28 04:21:50;;;;;;;28.42;10.43;;;6.20;99.90;;;;;;4913119;29;20082;-83
2022/03/28 04:24:16;;;;;;;27.15;10.20;;;6.30;99.90;;;;;;4913621;29;20048;-84
2022/03/28 04:26:42;;;;;;;38.67;10.13;;;6.20;99.90;;;;;;4896340;29;20486;-83
2022/03/28 04:29:07;;;;;;;43.72;10.43;;;6.70;99.90;;;;;;4893840;29;20053;-84
2022/03/28 04:31:33;;;;;;;44.92;10.13;;;6.20;99.90;;;;;;4894271;29;20052;-83
2022/03/28 04:33:59;;;;;;;43.53;10.48;;;6.20;99.90;;;;;;4894088;29;20045;-83
2022/03/28 04:36:25;;;;;;;47.42;10.18;;;6.20;99.90;;;;;;4894588;29;20060;-84
2022/03/28 04:38:51;;;;;;;34.75;8.38;;;6.10;99.90;;;;;;4893898;29;20061;-84
2022/03/28 04:41:17;;;;;;;36.45;9.35;;;6.30;99.90;;;;;;4896148;29;20064;-83
2022/03/28 04:43:42;;;;;;;31.05;9.55;;;6.00;99.90;;;;;;4896768;29;20120;-82
2022/03/28 04:46:08;;;;;;;38.53;9.98;;;6.10;99.90;;;;;;4882258;29;20057;-83
2022/03/28 04:48:34;;;;;;;31.00;8.90;;;6.00;99.90;;;;;;4881593;29;20056;-82
2022/03/28 04:50:59;;;;;;;32.42;9.90;;;6.00;99.90;;;;;;4882584;29;20051;-83
2022/03/28 04:53:25;;;;;;;31.33;8.85;;;6.00;99.90;;;;;;4892247;29;20139;-83
2022/03/28 04:55:51;;;;;;;22.85;8.93;;;6.00;99.90;;;;;;4900217;29;20066;-82
2022/03/28 04:58:16;;;;;;;35.00;9.98;;;5.90;99.90;;;;;;4900351;29;20048;-83
2022/03/28 05:00:43;;;;;;;25.17;9.18;;;5.90;99.90;;;;;;4900310;29;20048;-82
2022/03/28 05:03:09;;;;;;;42.78;10.18;;;6.10;99.90;;;;;;4900180;29;20052;-83
2022/03/28 05:05:34;;;;;;;23.52;9.77;;;5.90;99.90;;;;;;4916013;29;20060;-83
2022/03/28 05:08:00;;;;;;;48.83;11.73;;;5.90;99.90;;;;;;4885123;29;20052;-83
2022/03/28 05:10:26;;;;;;;22.75;9.40;;;6.00;99.90;;;;;;4900210;29;20526;-83
2022/03/28 05:12:51;;;;;;;36.53;9.95;;;5.90;99.90;;;;;;4896238;29;20298;-83
2022/03/28 05:15:17;;;;;;;32.50;10.10;;;6.00;99.90;;;;;;4897655;29;20506;-83
2022/03/28 05:17:43;;;;;;;30.17;9.85;;;6.00;99.90;;;;;;4896901;29;20058;-83
2022/03/28 05:20:09;;;;;;;23.25;10.45;;;6.60;99.90;;;;;;4850536;29;20137;-82
2022/03/28 05:22:35;;;;;;;;;;;6.10;99.90;;;;;;4881497;29;20060;-83
2022/03/28 05:25:00;;;;;;;34.22;9.30;;;6.10;99.90;;;;;;4897278;29;19931;-82
2022/03/28 05:27:26;;;;;;;36.03;11.23;;;6.10;99.90;;;;;;4849631;29;20040;-83
2022/03/28 05:29:52;;;;;;;47.28;11.75;;;6.00;99.90;;;;;;4896735;29;20100;-83
2022/03/28 05:32:18;;;;;;;36.15;10.77;;;6.00;99.90;;;;;;4914171;29;20056;-83
2022/03/28 05:34:44;;;;;;;42.90;11.60;;;6.50;99.90;;;;;;4884005;29;20056;-83
2022/03/28 05:37:12;;;;;;;33.17;11.35;;;6.00;99.90;;;;;;4914759;29;20127;-83
2022/03/28 05:39:39;;;;;;;23.23;10.23;;;6.00;99.90;;;;;;4898744;29;20048;-83
2022/03/28 05:42:07;;;;;;;28.67;11.60;;;6.00;99.90;;;;;;4897854;29;20555;-82
2022/03/28 05:44:33;;;;;;;28.20;11.68;;;5.90;99.90;;;;;;4915682;29;20478;-83
2022/03/28 05:46:59;;;;;;;28.08;11.38;;;5.90;99.90;;;;;;4914614;29;20073;-81
2022/03/28 05:49:25;;;;;;;35.08;12.57;;;5.90;99.90;;;;;;4899615;29;20486;-82
2022/03/28 05:51:52;;;;;;;27.27;11.65;;;5.90;99.90;;;;;;4914645;29;20080;-82
2022/03/28 05:54:18;;;;;;;30.58;13.40;;;6.00;99.90;;;;;;4915556;29;20131;-82
2022/03/28 05:56:44;;;;;;;40.33;13.90;;;5.90;99.90;;;;;;4898425;29;20048;-83
2022/03/28 05:59:10;;;;;;;33.83;13.18;;;6.00;99.90;;;;;;4899546;29;20056;-82
2022/03/28 06:01:37;;;;;;;36.72;14.55;;;6.30;99.90;;;;;;4898877;29;20508;-83
2022/03/28 06:04:03;;;;;;;30.63;14.02;;;6.10;99.90;;;;;;4907037;29;20059;-82
2022/03/28 06:06:29;;;;;;;;;;;6.10;99.90;;;;;;4915476;29;20044;-82
2022/03/28 06:08:55;;;;;;;27.45;12.40;;;6.20;99.90;;;;;;4883289;29;19926;-83
2022/03/28 06:11:22;;;;;;;22.58;11.55;;;6.20;99.90;;;;;;4914979;29;20529;-82
2022/03/28 06:13:47;;;;;;;23.65;11.68;;;6.30;99.90;;;;;;4913785;29;20051;-82
2022/03/28 06:16:13;;;;;;;22.98;11.07;;;6.20;99.90;;;;;;4915289;29;20052;-82
2022/03/28 06:18:39;;;;;;;22.92;11.73;;;6.20;99.90;;;;;;4898688;29;20059;-83
2022/03/28 06:21:07;;;;;;;22.80;11.10;;;6.10;99.90;;;;;;4899450;29;20058;-83
2022/03/28 06:23:33;;;;;;;22.02;11.20;;;6.00;99.90;;;;;;4899458;29;20052;-83
2022/03/28 06:25:59;;;;;;;;;;;5.90;99.90;;;;;;4897626;29;20055;-84
2022/03/28 06:28:25;;;;;;;20.58;10.13;;;6.00;99.90;;;;;;4898368;29;19927;-83
2022/03/28 06:30:51;;;;;;;19.00;9.93;;;6.00;99.90;;;;;;4898524;29;20083;-83
2022/03/28 06:33:17;;;;;;;22.08;11.48;;;6.00;99.90;;;;;;4914466;29;20059;-84
2022/03/28 06:35:45;;;;;;;21.85;11.45;;;6.10;99.90;;;;;;4898733;29;20064;-83
2022/03/28 06:38:11;;;;;;;24.52;11.32;;;6.10;99.90;;;;;;4892022;29;20402;-83
2022/03/28 06:40:37;;;;;;;24.42;11.70;;;6.10;99.90;;;;;;4913998;29;20048;-84
2022/03/28 06:43:04;;;;;;;24.52;11.60;;;6.10;99.90;;;;;;4896871;29;20071;-83
2022/03/28 06:45:29;;;;;;;22.90;11.75;;;6.10;99.90;;;;;;4914774;29;20482;-83
2022/03/28 06:47:56;;;;;;;27.75;13.00;;;6.10;99.90;;;;;;4913002;29;20096;-84
2022/03/28 06:50:23;;;;;;;;;;;6.10;99.90;;;;;;4875504;29;20052;-84
2022/03/28 06:52:50;;;;;;;30.88;13.15;;;6.10;99.90;;;;;;4898124;29;19923;-84
2022/03/28 06:55:15;;;;;;;;;;;6.30;99.90;;;;;;4899279;29;20398;-85
2022/03/28 06:57:41;;;;;;;25.67;11.55;;;6.20;99.90;;;;;;4881756;29;19938;-84
2022/03/28 07:00:10;;;;;;;26.83;12.57;;;6.30;99.90;;;;;;4913535;29;20553;-83
2022/03/28 07:02:36;;;;;;;26.02;12.23;;;6.30;99.90;;;;;;4913260;29;20052;-83
2022/03/28 07:05:07;;;;;;;27.05;11.30;;;6.30;99.90;;;;;;4912445;29;20390;-83
2022/03/28 07:07:44;;;;;;;29.58;11.77;;;6.40;99.90;;;;;;4895296;29;20052;-83
2022/03/28 07:10:11;;;;;;;26.40;11.40;;;6.30;99.90;;;;;;4890980;29;20084;-83
2022/03/28 07:12:38;;;;;;;31.15;13.68;;;6.20;99.90;;;;;;4912677;29;20048;-83
2022/03/28 07:15:05;;;;;;;26.42;12.50;;;6.20;99.90;;;;;;4913540;29;20744;-83
2022/03/28 07:17:33;;;;;;;26.70;12.18;;;6.30;99.90;;;;;;4913848;29;20054;-83
2022/03/28 07:19:59;;;;;;;24.08;12.30;;;6.30;99.90;;;;;;4897300;29;20048;-83
2022/03/28 07:22:24;;;;;;;24.42;11.18;;;6.60;99.90;;;;;;4903964;29;20083;-83
2022/03/28 07:24:50;;;;;;;20.92;10.40;;;6.50;99.90;;;;;;4878894;29;20056;-83
2022/03/28 07:27:17;;;;;;;22.45;11.18;;;6.50;99.90;;;;;;4894209;29;20081;-82
2022/03/28 07:29:43;;;;;;;24.63;11.82;;;6.50;99.90;;;;;;4895020;29;20099;-83
2022/03/28 07:32:09;;;;;;;26.95;12.77;;;6.50;99.90;;;;;;4879016;29;20491;-83
2022/03/28 07:34:35;;;;;;;21.15;10.43;;;6.40;99.90;;;;;;4910380;29;20127;-82
2022/03/28 07:37:05;;;;;;;25.38;11.65;;;6.40;99.90;;;;;;4878557;29;20495;-83
2022/03/28 07:39:33;;;;;;;21.15;10.60;;;6.30;99.90;;;;;;4913680;29;20052;-83
2022/03/28 07:41:58;;;;;;;22.90;9.95;;;6.90;99.90;;;;;;4911307;29;20413;-81
2022/03/28 07:44:24;;;;;;;19.33;9.43;;;6.50;99.90;;;;;;4913911;29;20093;-83
2022/03/28 07:46:50;;;;;;;22.35;9.77;;;6.90;99.90;;;;;;4913341;29;20486;-83
2022/03/28 07:49:18;;;;;;;24.20;9.65;;;6.80;99.90;;;;;;4912964;29;20052;-82
2022/03/28 07:51:44;;;;;;;23.45;9.98;;;6.60;99.90;;;;;;4891487;29;20131;-80
2022/03/28 07:54:11;;;;;;;;;;;6.60;99.90;;;;;;4876803;29;20401;-81
2022/03/28 07:56:38;;;;;;;22.95;8.73;;;6.60;99.90;;;;;;4899320;29;19927;-81
2022/03/28 07:59:04;;;;;;;20.80;9.35;;;6.60;99.90;;;;;;4898301;29;20071;-81
2022/03/28 08:01:29;;;;;;;20.20;8.18;;;6.70;99.90;;;;;;4895783;29;20486;-80
2022/03/28 08:03:55;;;;;;;17.10;7.18;;;6.80;99.90;;;;;;4907871;29;20127;-81
2022/03/28 08:06:21;;;;;;;16.90;7.47;;;7.00;99.90;;;;;;4907598;29;20063;-81
2022/03/28 08:08:47;;;;;;;18.63;7.68;;;7.00;99.90;;;;;;4895969;29;20573;-80
2022/03/28 08:11:15;;;;;;;15.50;6.90;;;7.00;99.90;;;;;;4894692;29;20037;-81
2022/03/28 08:13:41;;;;;;;15.35;7.55;;;7.30;99.90;;;;;;4904203;29;20048;-79
2022/03/28 08:16:08;;;;;;;17.48;7.80;;;7.20;99.90;;;;;;4913351;29;20062;-82
2022/03/28 08:18:37;;;;;;;14.90;7.05;;;7.10;99.90;;;;;;4916280;29;20092;-81
2022/03/28 08:21:03;;;;;;;16.67;7.57;;;7.20;99.90;;;;;;4907489;29;20060;-82
2022/03/28 08:23:29;;;;;;;14.27;7.28;;;7.20;99.90;;;;;;4908520;29;20490;-81
2022/03/28 08:25:55;;;;;;;16.02;6.45;;;7.30;99.90;;;;;;4900434;29;20143;-81
2022/03/28 08:28:21;;;;;;;14.35;6.80;;;7.30;99.90;;;;;;4916078;29;20156;-81
2022/03/28 08:30:47;;;;;;;11.25;5.88;;;7.30;99.90;;;;;;4917139;29;20086;-80
2022/03/28 08:33:12;;;;;;;;;;;7.30;99.90;;;;;;4914951;29;20060;-80
2022/03/28 08:35:39;;;;;;;14.73;6.90;;;7.30;99.90;;;;;;4900976;29;20004;-77
2022/03/28 08:38:05;;;;;;;14.35;6.97;;;7.30;99.90;;;;;;4900065;29;20095;-81
2022/03/28 08:40:31;;;;;;;14.13;6.85;;;7.40;99.90;;;;;;4916384;29;20413;-80
2022/03/28 08:42:57;;;;;;;14.38;6.25;;;7.50;99.90;;;;;;4898493;29;20064;-80
2022/03/28 08:45:23;;;;;;;15.50;6.85;;;7.50;99.90;;;;;;4897927;29;20499;-80
2022/03/28 08:47:49;;;;;;;13.27;6.13;;;7.60;99.90;;;;;;4897153;29;20112;-81
2022/03/28 08:50:16;;;;;;;15.13;7.00;;;7.70;99.90;;;;;;4881696;29;20491;-80
2022/03/28 08:52:42;;;;;;;14.48;6.72;;;7.70;99.90;;;;;;4897323;29;20052;-81
2022/03/28 08:55:10;;;;;;;15.95;6.78;;;7.70;99.90;;;;;;4881512;29;20084;-81
2022/03/28 08:57:36;;;;;;;12.68;5.95;;;7.80;99.90;;;;;;4880535;29;20055;-80
2022/03/28 09:00:04;;;;;;;12.45;5.30;;;7.80;99.90;;;;;;4898537;29;20448;-81
2022/03/28 09:02:45;;;;;;;12.25;5.72;;;7.80;99.90;;;;;;4881823;29;20087;-82
2022/03/28 09:05:29;;;;;;;11.55;5.78;;;7.80;99.90;;;;;;4896806;29;20044;-80
2022/03/28 09:07:58;;;;;;;12.30;5.55;;;7.90;99.90;;;;;;4910524;29;20044;-82
2022/03/28 09:10:27;;;;;;;13.15;6.45;;;7.90;99.90;;;;;;4916056;29;20133;-81
2022/03/28 09:13:06;;;;;;;13.93;6.00;;;8.00;99.90;;;;;;4915109;29;20050;-80
2022/03/28 09:15:41;;;;;;;11.80;5.65;;;8.00;99.90;;;;;;4900407;29;20060;-81
2022/03/28 09:18:08;;;;;;;10.85;5.28;;;8.10;99.90;;;;;;4914990;29;20070;-81
2022/03/28 09:20:37;;;;;;;11.27;5.63;;;8.50;99.90;;;;;;4915956;29;20063;-80
2022/03/28 09:23:48;;;;;;;10.88;5.03;;;8.30;99.90;;;;;;4914536;29;20051;-80
2022/03/28 09:26:23;;;;;;;8.75;4.30;;;8.40;99.90;;;;;;4898878;29;20052;-80
2022/03/28 09:28:53;;;;;;;11.80;5.47;;;8.40;99.90;;;;;;4897707;29;20057;-79
2022/03/28 09:31:27;;;;;;;9.82;4.88;;;8.40;99.90;;;;;;4896100;29;20045;-77
2022/03/28 09:34:03;;;;;;;10.90;5.20;;;8.30;99.90;;;;;;4903110;29;20055;-77
2022/03/28 09:36:54;;;;;;;12.70;5.00;;;8.30;99.90;;;;;;4915943;29;20107;-78
2022/03/28 09:39:22;;;;;;;10.30;4.43;;;8.20;99.90;;;;;;4915250;29;20048;-78
2022/03/28 09:42:09;;;;;;;9.60;4.53;;;8.30;99.90;;;;;;4880452;29;20079;-79
2022/03/28 09:44:43;;;;;;;9.13;4.93;;;8.20;99.90;;;;;;4905199;29;20490;-78
2022/03/28 09:47:24;;;;;;;10.95;4.80;;;8.10;99.90;;;;;;4888554;29;20140;-78
2022/03/28 09:49:54;;;;;;;9.70;5.18;;;8.20;99.90;;;;;;4905839;29;20040;-78
2022/03/28 09:52:25;;;;;;;8.30;4.32;;;8.20;99.90;;;;;;4906012;29;20056;-78
2022/03/28 09:55:04;;;;;;;10.25;4.68;;;8.40;99.90;;;;;;4900146;29;20422;-80
2022/03/28 09:57:32;;;;;;;9.55;5.15;;;8.50;99.90;;;;;;4911904;29;20119;-78
2022/03/28 10:00:09;;;;;;;9.77;5.03;;;8.50;99.90;;;;;;4914207;29;20087;-77
2022/03/28 10:02:36;;;;;;;9.75;4.70;;;8.60;99.90;;;;;;4899147;29;20059;-80
2022/03/28 10:05:03;;;;;;;9.57;4.70;;;8.70;99.90;;;;;;4898127;29;20556;-81
2022/03/28 10:07:31;;;;;;;9.25;4.80;;;8.90;99.90;;;;;;4896370;29;20147;-78
2022/03/28 10:09:58;;;;;;;8.63;4.90;;;9.00;99.90;;;;;;4898102;29;20151;-80
2022/03/28 10:12:24;;;;;;;9.30;4.72;;;9.20;99.90;;;;;;4911806;29;20072;-80
2022/03/28 10:14:57;;;;;;;10.85;5.18;;;9.40;99.90;;;;;;4898443;29;20052;-80
2022/03/28 10:17:25;;;;;;;10.05;5.47;;;9.40;99.90;;;;;;4882622;29;20120;-80
2022/03/28 10:19:51;;;;;;;9.45;5.10;;;9.50;99.90;;;;;;4910885;29;20053;-80
2022/03/28 10:22:26;;;;;;;10.25;4.85;;;9.50;99.90;;;;;;4913146;29;20056;-80
2022/03/28 10:24:55;;;;;;;9.10;4.65;;;9.60;99.90;;;;;;4914286;29;20079;-80
2022/03/28 10:27:21;;;;;;;10.60;5.03;;;9.70;99.90;;;;;;4895711;29;20040;-80
2022/03/28 10:29:47;;;;;;;10.15;5.13;;;9.70;99.90;;;;;;4914139;29;20052;-78
2022/03/28 10:32:15;;;;;;;10.18;5.32;;;9.80;99.90;;;;;;4898230;29;20067;-77
2022/03/28 10:34:56;;;;;;;10.55;4.93;;;9.80;99.90;;;;;;4913898;29;20048;-78
2022/03/28 10:37:25;;;;;;;9.20;4.82;;;9.80;99.90;;;;;;4911056;29;20525;-78
2022/03/28 10:39:51;;;;;;;9.85;4.50;;;9.80;99.90;;;;;;4913699;29;20055;-78
2022/03/28 10:42:18;;;;;;;;;;;9.80;99.90;;;;;;4893222;29;20521;-78
2022/03/28 10:44:46;;;;;;;8.52;4.80;;;9.80;99.90;;;;;;4897431;29;19930;-77
2022/03/28 10:47:14;;;;;;;9.15;5.03;;;9.70;99.90;;;;;;4914058;29;20056;-78
2022/03/28 10:49:43;;;;;;;8.65;4.70;;;9.80;99.90;;;;;;4883062;29;20151;-78
2022/03/28 10:52:13;;;;;;;8.98;5.18;;;9.80;99.90;;;;;;4897622;29;20104;-79
2022/03/28 10:54:39;;;;;;;9.70;5.28;;;9.90;99.90;;;;;;4914155;29;20054;-78
2022/03/28 10:57:05;;;;;;;9.43;5.05;;;10.00;99.90;;;;;;4895503;29;20040;-77
2022/03/28 10:59:31;;;;;;;;;;;10.10;99.90;;;;;;4879731;29;20098;-77
2022/03/28 11:01:57;;;;;;;10.48;5.38;;;10.10;99.90;;;;;;4895512;29;20014;-78
2022/03/28 11:04:23;;;;;;;9.45;5.07;;;10.60;99.90;;;;;;4894365;29;20063;-78
2022/03/28 11:07:06;;;;;;;9.55;5.03;;;10.30;99.90;;;;;;4895139;29;20052;-77
2022/03/28 11:09:41;;;;;;;8.55;4.60;;;10.30;99.90;;;;;;4911660;29;20044;-77
2022/03/28 11:12:13;;;;;;;9.25;4.85;;;10.50;99.90;;;;;;4894366;29;20083;-77
2022/03/28 11:14:49;;;;;;;10.35;5.50;;;10.60;99.90;;;;;;4907078;29;20123;-77
2022/03/28 11:17:20;;;;;;;8.47;4.90;;;10.90;99.90;;;;;;4912742;29;20095;-76
2022/03/28 11:20:12;;;;;;;8.50;4.80;;;11.30;99.90;;;;;;4913198;29;20059;-79
2022/03/28 11:22:52;;;;;;;9.52;4.85;;;11.60;99.90;;;;;;4911770;29;20158;-78
2022/03/28 11:25:26;;;;;;;10.05;5.15;;;12.00;99.90;;;;;;4911982;29;20048;-81
2022/03/28 11:28:07;;;;;;;9.52;4.85;;;12.30;99.90;;;;;;4897231;29;20066;-80
2022/03/28 11:31:00;;;;;;;8.13;5.00;;;12.30;99.90;;;;;;4913266;29;20047;-77
2022/03/28 11:33:33;;;;;;;8.90;5.22;;;12.30;99.90;;;;;;4913157;29;20060;-84
2022/03/28 11:36:05;;;;;;;9.32;5.05;;;12.20;99.90;;;;;;4916421;29;20044;-92
2022/03/28 11:38:37;;;;;;;8.77;5.03;;;12.10;99.90;;;;;;4913849;29;20067;-91
2022/03/28 11:41:04;;;;;;;9.27;4.90;;;12.10;99.90;;;;;;4882130;29;20052;-82
2022/03/28 11:43:47;;;;;;;8.13;4.82;;;12.10;99.90;;;;;;4886601;29;20052;-81
2022/03/28 11:46:19;;;;;;;11.15;5.03;;;12.20;99.90;;;;;;4889571;29;20055;-81
2022/03/28 11:48:59;;;;;;;9.90;5.10;;;12.40;99.90;;;;;;4894704;29;20435;-89
2022/03/28 11:51:28;;;;;;;8.70;5.18;;;12.60;99.90;;;;;;4895349;29;20048;-84
2022/03/28 11:54:16;;;;;;;7.50;4.68;;;12.80;99.90;;;;;;4895581;29;20109;-83
2022/03/28 11:59:29;;;;;;;9.00;5.07;;;13.40;99.90;;;;;;4891338;29;20471;-81
2022/03/28 12:02:03;;;;;;;9.93;5.07;;;13.50;99.90;;;;;;4894634;29;20494;-79
2022/03/28 12:04:29;;;;;;;9.60;5.15;;;13.80;99.90;;;;;;4895373;29;20070;-80
2022/03/28 12:06:56;;;;;;;8.48;5.22;;;14.00;99.90;;;;;;4891889;29;20074;-80
2022/03/28 12:09:22;;;;;;;9.27;5.00;;;14.20;99.90;;;;;;4886852;29;20498;-80
2022/03/28 12:11:50;;;;;;;10.48;5.50;;;14.40;99.90;;;;;;4905063;29;20048;-83
2022/03/28 12:14:17;;;;;;;9.50;4.90;;;14.60;99.90;;;;;;4904574;29;20063;-84
2022/03/28 12:16:46;;;;;;;8.57;5.25;;;14.80;99.90;;;;;;4905519;29;20080;-79
2022/03/28 12:19:34;;;;;;;8.93;5.40;;;15.10;99.90;;;;;;4912198;29;20051;-80
2022/03/28 12:22:14;;;;;;;9.73;5.30;;;15.20;99.90;;;;;;4906079;29;20482;-80
2022/03/28 12:24:52;;;;;;;9.80;5.50;;;15.40;99.90;;;;;;4892941;29;20063;-81
2022/03/28 12:27:19;;;;;;;8.15;4.93;;;15.70;99.90;;;;;;4861597;29;20059;-81
2022/03/28 12:29:45;;;;;;;9.23;5.55;;;15.90;99.90;;;;;;4893950;29;20053;-81
2022/03/28 12:32:16;;;;;;;9.88;5.78;;;16.10;99.90;;;;;;4879163;29;20143;-81
2022/03/28 12:34:42;;;;;;;8.55;5.47;;;16.30;99.90;;;;;;4908665;29;20462;-81
2022/03/28 12:37:12;;;;;;;10.07;5.85;;;16.50;99.90;;;;;;4907921;29;20486;-81
2022/03/28 12:39:42;;;;;;;8.85;5.90;;;16.70;99.90;;;;;;4912506;29;20635;-81
2022/03/28 12:42:08;;;;;;;10.32;5.93;;;16.80;99.90;;;;;;4910981;29;20052;-82
2022/03/28 12:44:34;;;;;;;10.00;6.07;;;16.80;99.90;;;;;;4911337;29;20053;-81
2022/03/28 12:47:04;;;;;;;10.38;5.95;;;16.90;98.20;;;;;;4897361;29;20491;-81
2022/03/28 12:49:43;;;;;;;10.20;6.20;;;16.90;96.50;;;;;;4911929;29;20071;-81
2022/03/28 12:52:11;;;;;;;9.68;6.20;;;17.10;95.50;;;;;;4912193;29;20056;-81
2022/03/28 12:54:36;;;;;;;11.50;6.28;;;17.40;95.70;;;;;;4893518;29;20048;-81